sensor_id;sensor_type;location;lat;lon;timestamp;temperature;humidity
3770;DHT22;1900;48.890;9.190;2022-10-31T00:01:36;20.10;60.40
3770;DHT22;1900;48.890;9.190;2022-10-31T00:04:02;20.10;60.50
3770;DHT22;1900;48.890;9.190;2022-10-31T00:06:28;20.10;60.50
3770;DHT22;1900;48.890;9.190;2022-10-31T00:09:03;20.10;60.50
3770;DHT22;1900;48.890;9.190;2022-10-31T00:11:29;20.10;60.60
3770;DHT22;1900;48.890;9.190;2022-10-31T00:13:57;20.00;60.30
3770;DHT22;1900;48.890;9.190;2022-10-31T00:16:24;20.00;60.40
3770;DHT22;1900;48.890;9.190;2022-10-31T00:18:57;20.00;60.40
3770;DHT22;1900;48.890;9.190;2022-10-31T00:21:24;19.90;60.30
3770;DHT22;1900;48.890;9.190;2022-10-31T00:23:50;19.90;60.30
3770;DHT22;1900;48.890;9.190;2022-10-31T00:26:16;19.80;60.10
3770;DHT22;1900;48.890;9.190;2022-10-31T00:28:42;19.80;60.20
3770;DHT22;1900;48.890;9.190;2022-10-31T00:31:10;19.70;60.10
3770;DHT22;1900;48.890;9.190;2022-10-31T00:33:37;19.70;60.10
3770;DHT22;1900;48.890;9.190;2022-10-31T00:36:04;19.70;60.20
3770;DHT22;1900;48.890;9.190;2022-10-31T00:38:30;19.60;60.10
3770;DHT22;1900;48.890;9.190;2022-10-31T00:40:56;19.60;60.20
3770;DHT22;1900;48.890;9.190;2022-10-31T00:43:22;19.60;60.30
3770;DHT22;1900;48.890;9.190;2022-10-31T00:45:48;19.60;60.30
3770;DHT22;1900;48.890;9.190;2022-10-31T00:48:14;19.50;60.20
3770;DHT22;1900;48.890;9.190;2022-10-31T00:50:40;19.50;60.30
3770;DHT22;1900;48.890;9.190;2022-10-31T00:53:05;19.50;60.30
3770;DHT22;1900;48.890;9.190;2022-10-31T00:55:31;19.50;60.30
3770;DHT22;1900;48.890;9.190;2022-10-31T00:57:57;19.50;60.30
3770;DHT22;1900;48.890;9.190;2022-10-31T01:00:23;19.40;60.20
3770;DHT22;1900;48.890;9.190;2022-10-31T01:02:49;19.40;60.20
3770;DHT22;1900;48.890;9.190;2022-10-31T01:05:15;19.40;60.20
3770;DHT22;1900;48.890;9.190;2022-10-31T01:07:41;19.30;60.20
3770;DHT22;1900;48.890;9.190;2022-10-31T01:10:09;19.30;60.30
3770;DHT22;1900;48.890;9.190;2022-10-31T01:12:43;19.30;60.30
3770;DHT22;1900;48.890;9.190;2022-10-31T01:15:11;19.30;60.40
3770;DHT22;1900;48.890;9.190;2022-10-31T01:17:37;19.30;60.40
3770;DHT22;1900;48.890;9.190;2022-10-31T01:20:04;19.30;60.50
3770;DHT22;1900;48.890;9.190;2022-10-31T01:22:30;19.30;60.50
3770;DHT22;1900;48.890;9.190;2022-10-31T01:24:59;19.20;60.00
3770;DHT22;1900;48.890;9.190;2022-10-31T01:27:25;19.20;60.40
3770;DHT22;1900;48.890;9.190;2022-10-31T01:29:51;19.20;60.40
3770;DHT22;1900;48.890;9.190;2022-10-31T01:32:17;19.20;60.50
3770;DHT22;1900;48.890;9.190;2022-10-31T01:34:44;19.20;60.50
3770;DHT22;1900;48.890;9.190;2022-10-31T01:37:11;19.20;60.50
3770;DHT22;1900;48.890;9.190;2022-10-31T01:39:37;19.20;60.50
3770;DHT22;1900;48.890;9.190;2022-10-31T01:42:03;19.20;60.50
3770;DHT22;1900;48.890;9.190;2022-10-31T01:49:34;19.10;60.40
3770;DHT22;1900;48.890;9.190;2022-10-31T01:54:35;19.10;60.50
3770;DHT22;1900;48.890;9.190;2022-10-31T01:57:04;19.10;60.50
3770;DHT22;1900;48.890;9.190;2022-10-31T01:59:34;19.10;60.50
3770;DHT22;1900;48.890;9.190;2022-10-31T02:02:01;19.10;60.50
3770;DHT22;1900;48.890;9.190;2022-10-31T02:04:27;19.00;60.40
3770;DHT22;1900;48.890;9.190;2022-10-31T02:07:04;19.00;60.40
3770;DHT22;1900;48.890;9.190;2022-10-31T02:09:34;19.00;60.50
3770;DHT22;1900;48.890;9.190;2022-10-31T02:12:02;19.00;60.60
3770;DHT22;1900;48.890;9.190;2022-10-31T02:14:30;19.00;60.60
3770;DHT22;1900;48.890;9.190;2022-10-31T02:16:56;19.00;60.60
3770;DHT22;1900;48.890;9.190;2022-10-31T02:19:34;19.00;60.70
3770;DHT22;1900;48.890;9.190;2022-10-31T02:22:26;19.00;60.70
3770;DHT22;1900;48.890;9.190;2022-10-31T02:30:28;19.00;60.80
3770;DHT22;1900;48.890;9.190;2022-10-31T02:36:04;19.00;60.80
3770;DHT22;1900;48.890;9.190;2022-10-31T02:49:36;18.90;60.50
3770;DHT22;1900;48.890;9.190;2022-10-31T02:52:24;18.80;60.40
3770;DHT22;1900;48.890;9.190;2022-10-31T02:54:50;18.80;60.40
3770;DHT22;1900;48.890;9.190;2022-10-31T02:57:23;18.80;60.30
3770;DHT22;1900;48.890;9.190;2022-10-31T02:59:53;18.70;60.30
3770;DHT22;1900;48.890;9.190;2022-10-31T03:02:38;18.70;60.30
3770;DHT22;1900;48.890;9.190;2022-10-31T03:16:33;18.60;60.30
3770;DHT22;1900;48.890;9.190;2022-10-31T03:19:10;18.50;60.20
3770;DHT22;1900;48.890;9.190;2022-10-31T03:24:10;18.50;60.30
3770;DHT22;1900;48.890;9.190;2022-10-31T03:26:39;18.50;60.30
3770;DHT22;1900;48.890;9.190;2022-10-31T03:29:10;18.50;60.40
3770;DHT22;1900;48.890;9.190;2022-10-31T03:31:47;18.40;60.30
3770;DHT22;1900;48.890;9.190;2022-10-31T03:34:15;18.40;60.30
3770;DHT22;1900;48.890;9.190;2022-10-31T03:36:44;18.40;60.30
3770;DHT22;1900;48.890;9.190;2022-10-31T03:39:15;18.40;60.30
3770;DHT22;1900;48.890;9.190;2022-10-31T03:41:45;18.40;60.30
3770;DHT22;1900;48.890;9.190;2022-10-31T03:44:16;18.40;60.40
3770;DHT22;1900;48.890;9.190;2022-10-31T03:46:46;18.30;60.30
3770;DHT22;1900;48.890;9.190;2022-10-31T03:49:12;18.30;60.20
3770;DHT22;1900;48.890;9.190;2022-10-31T03:54:23;18.30;60.40
3770;DHT22;1900;48.890;9.190;2022-10-31T03:56:57;18.30;60.40
3770;DHT22;1900;48.890;9.190;2022-10-31T03:59:28;18.30;60.40
3770;DHT22;1900;48.890;9.190;2022-10-31T04:02:01;18.30;60.30
3770;DHT22;1900;48.890;9.190;2022-10-31T04:04:29;18.30;60.30
3770;DHT22;1900;48.890;9.190;2022-10-31T04:06:57;18.30;60.30
3770;DHT22;1900;48.890;9.190;2022-10-31T04:09:26;18.30;60.40
3770;DHT22;1900;48.890;9.190;2022-10-31T04:11:54;18.20;60.30
3770;DHT22;1900;48.890;9.190;2022-10-31T04:14:41;18.20;60.30
3770;DHT22;1900;48.890;9.190;2022-10-31T04:17:12;18.20;60.20
3770;DHT22;1900;48.890;9.190;2022-10-31T04:19:40;18.20;60.20
3770;DHT22;1900;48.890;9.190;2022-10-31T04:22:06;18.20;60.20
3770;DHT22;1900;48.890;9.190;2022-10-31T04:24:32;18.10;60.00
3770;DHT22;1900;48.890;9.190;2022-10-31T04:26:58;18.10;60.10
3770;DHT22;1900;48.890;9.190;2022-10-31T04:29:23;18.10;60.10
3770;DHT22;1900;48.890;9.190;2022-10-31T04:31:50;18.10;60.10
3770;DHT22;1900;48.890;9.190;2022-10-31T04:34:16;18.10;60.20
3770;DHT22;1900;48.890;9.190;2022-10-31T04:36:42;18.10;60.30
3770;DHT22;1900;48.890;9.190;2022-10-31T04:39:07;18.10;60.30
3770;DHT22;1900;48.890;9.190;2022-10-31T04:41:53;18.10;60.30
3770;DHT22;1900;48.890;9.190;2022-10-31T04:44:19;18.10;60.40
3770;DHT22;1900;48.890;9.190;2022-10-31T04:46:49;18.10;60.40
3770;DHT22;1900;48.890;9.190;2022-10-31T04:49:15;18.00;60.30
3770;DHT22;1900;48.890;9.190;2022-10-31T04:51:41;18.10;60.40
3770;DHT22;1900;48.890;9.190;2022-10-31T04:54:08;18.00;60.30
3770;DHT22;1900;48.890;9.190;2022-10-31T04:56:52;18.00;60.30
3770;DHT22;1900;48.890;9.190;2022-10-31T04:59:21;18.00;60.40
3770;DHT22;1900;48.890;9.190;2022-10-31T05:01:51;18.00;60.40
3770;DHT22;1900;48.890;9.190;2022-10-31T05:04:21;18.10;60.50
3770;DHT22;1900;48.890;9.190;2022-10-31T05:06:47;18.00;60.30
3770;DHT22;1900;48.890;9.190;2022-10-31T05:09:13;18.00;60.20
3770;DHT22;1900;48.890;9.190;2022-10-31T05:11:39;18.00;60.20
3770;DHT22;1900;48.890;9.190;2022-10-31T05:14:20;18.00;60.20
3770;DHT22;1900;48.890;9.190;2022-10-31T05:17:15;18.00;60.20
3770;DHT22;1900;48.890;9.190;2022-10-31T05:19:59;17.90;60.10
3770;DHT22;1900;48.890;9.190;2022-10-31T05:22:55;17.90;60.10
3770;DHT22;1900;48.890;9.190;2022-10-31T05:25:23;17.90;60.10
3770;DHT22;1900;48.890;9.190;2022-10-31T05:27:50;17.90;60.10
3770;DHT22;1900;48.890;9.190;2022-10-31T05:30:22;17.90;60.10
3770;DHT22;1900;48.890;9.190;2022-10-31T05:32:50;17.90;60.10
3770;DHT22;1900;48.890;9.190;2022-10-31T05:35:34;17.80;60.10
3770;DHT22;1900;48.890;9.190;2022-10-31T05:38:29;17.80;60.00
3770;DHT22;1900;48.890;9.190;2022-10-31T05:40:58;17.80;60.00
3770;DHT22;1900;48.890;9.190;2022-10-31T05:43:29;17.70;59.90
3770;DHT22;1900;48.890;9.190;2022-10-31T05:45:56;17.70;59.80
3770;DHT22;1900;48.890;9.190;2022-10-31T05:48:40;17.70;59.80
3770;DHT22;1900;48.890;9.190;2022-10-31T05:51:24;17.60;59.70
3770;DHT22;1900;48.890;9.190;2022-10-31T05:53:50;17.50;59.60
3770;DHT22;1900;48.890;9.190;2022-10-31T05:56:16;17.50;59.70
3770;DHT22;1900;48.890;9.190;2022-10-31T05:58:42;17.50;59.80
3770;DHT22;1900;48.890;9.190;2022-10-31T06:01:07;17.50;59.70
3770;DHT22;1900;48.890;9.190;2022-10-31T06:03:33;17.50;59.80
3770;DHT22;1900;48.890;9.190;2022-10-31T06:06:01;17.50;59.80
3770;DHT22;1900;48.890;9.190;2022-10-31T06:08:35;17.40;59.80
3770;DHT22;1900;48.890;9.190;2022-10-31T06:11:04;17.40;59.90
3770;DHT22;1900;48.890;9.190;2022-10-31T06:13:53;17.40;59.90
3770;DHT22;1900;48.890;9.190;2022-10-31T06:16:23;17.40;59.80
3770;DHT22;1900;48.890;9.190;2022-10-31T06:18:50;17.40;59.80
3770;DHT22;1900;48.890;9.190;2022-10-31T06:21:15;17.30;59.80
3770;DHT22;1900;48.890;9.190;2022-10-31T06:23:41;17.30;59.80
3770;DHT22;1900;48.890;9.190;2022-10-31T06:26:34;17.30;59.80
3770;DHT22;1900;48.890;9.190;2022-10-31T06:29:01;17.30;59.80
3770;DHT22;1900;48.890;9.190;2022-10-31T06:31:47;17.30;59.90
3770;DHT22;1900;48.890;9.190;2022-10-31T06:34:12;17.30;60.00
3770;DHT22;1900;48.890;9.190;2022-10-31T06:36:38;17.30;60.00
3770;DHT22;1900;48.890;9.190;2022-10-31T06:39:04;17.30;60.10
3770;DHT22;1900;48.890;9.190;2022-10-31T06:41:30;17.30;60.10
3770;DHT22;1900;48.890;9.190;2022-10-31T06:43:56;17.30;60.20
3770;DHT22;1900;48.890;9.190;2022-10-31T06:46:54;17.40;60.30
3770;DHT22;1900;48.890;9.190;2022-10-31T06:49:40;17.30;60.20
3770;DHT22;1900;48.890;9.190;2022-10-31T06:52:12;17.40;60.40
3770;DHT22;1900;48.890;9.190;2022-10-31T06:54:38;17.40;60.40
3770;DHT22;1900;48.890;9.190;2022-10-31T06:57:04;17.40;60.30
3770;DHT22;1900;48.890;9.190;2022-10-31T06:59:30;17.40;60.30
3770;DHT22;1900;48.890;9.190;2022-10-31T07:02:23;17.40;60.30
3770;DHT22;1900;48.890;9.190;2022-10-31T07:04:50;17.40;60.20
3770;DHT22;1900;48.890;9.190;2022-10-31T07:07:17;17.40;60.30
3770;DHT22;1900;48.890;9.190;2022-10-31T07:09:44;17.30;60.30
3770;DHT22;1900;48.890;9.190;2022-10-31T07:12:12;17.40;60.40
3770;DHT22;1900;48.890;9.190;2022-10-31T07:14:45;17.40;60.40
3770;DHT22;1900;48.890;9.190;2022-10-31T07:17:10;17.40;60.50
3770;DHT22;1900;48.890;9.190;2022-10-31T07:19:40;17.40;60.60
3770;DHT22;1900;48.890;9.190;2022-10-31T07:22:05;17.40;60.60
3770;DHT22;1900;48.890;9.190;2022-10-31T07:24:32;17.40;60.60
3770;DHT22;1900;48.890;9.190;2022-10-31T07:27:16;17.50;60.80
3770;DHT22;1900;48.890;9.190;2022-10-31T07:29:44;17.50;61.00
3770;DHT22;1900;48.890;9.190;2022-10-31T07:32:10;17.60;61.00
3770;DHT22;1900;48.890;9.190;2022-10-31T07:34:41;17.60;61.10
3770;DHT22;1900;48.890;9.190;2022-10-31T07:37:20;17.60;61.10
3770;DHT22;1900;48.890;9.190;2022-10-31T07:39:45;17.70;62.00
3770;DHT22;1900;48.890;9.190;2022-10-31T07:42:11;17.70;61.50
3770;DHT22;1900;48.890;9.190;2022-10-31T07:44:42;17.80;61.60
3770;DHT22;1900;48.890;9.190;2022-10-31T07:47:26;17.80;61.40
3770;DHT22;1900;48.890;9.190;2022-10-31T07:50:31;17.80;61.30
3770;DHT22;1900;48.890;9.190;2022-10-31T07:53:18;17.80;61.30
3770;DHT22;1900;48.890;9.190;2022-10-31T07:55:43;17.90;61.50
3770;DHT22;1900;48.890;9.190;2022-10-31T07:58:13;17.90;61.70
3770;DHT22;1900;48.890;9.190;2022-10-31T08:00:41;18.00;61.80
3770;DHT22;1900;48.890;9.190;2022-10-31T08:03:13;18.00;61.90
3770;DHT22;1900;48.890;9.190;2022-10-31T08:06:08;18.10;62.10
3770;DHT22;1900;48.890;9.190;2022-10-31T08:09:12;18.10;62.10
3770;DHT22;1900;48.890;9.190;2022-10-31T08:11:39;18.20;62.20
3770;DHT22;1900;48.890;9.190;2022-10-31T08:14:05;18.20;62.20
3770;DHT22;1900;48.890;9.190;2022-10-31T08:16:32;18.30;62.40
3770;DHT22;1900;48.890;9.190;2022-10-31T08:19:01;18.40;62.60
3770;DHT22;1900;48.890;9.190;2022-10-31T08:21:28;18.40;62.60
3770;DHT22;1900;48.890;9.190;2022-10-31T08:23:54;18.50;62.80
3770;DHT22;1900;48.890;9.190;2022-10-31T08:26:22;18.60;62.80
3770;DHT22;1900;48.890;9.190;2022-10-31T08:28:50;18.60;62.80
3770;DHT22;1900;48.890;9.190;2022-10-31T08:31:16;18.70;62.90
3770;DHT22;1900;48.890;9.190;2022-10-31T08:33:42;18.70;62.90
3770;DHT22;1900;48.890;9.190;2022-10-31T08:36:27;18.80;63.00
3770;DHT22;1900;48.890;9.190;2022-10-31T08:38:53;18.80;63.00
3770;DHT22;1900;48.890;9.190;2022-10-31T08:41:19;18.90;63.00
3770;DHT22;1900;48.890;9.190;2022-10-31T08:43:45;18.90;63.00
3770;DHT22;1900;48.890;9.190;2022-10-31T08:46:11;19.00;63.10
3770;DHT22;1900;48.890;9.190;2022-10-31T08:48:39;19.00;63.10
3770;DHT22;1900;48.890;9.190;2022-10-31T08:51:05;19.00;63.00
3770;DHT22;1900;48.890;9.190;2022-10-31T08:53:31;19.10;63.00
3770;DHT22;1900;48.890;9.190;2022-10-31T08:56:26;19.10;63.10
3770;DHT22;1900;48.890;9.190;2022-10-31T08:58:53;19.10;63.10
3770;DHT22;1900;48.890;9.190;2022-10-31T09:01:25;19.20;63.20
3770;DHT22;1900;48.890;9.190;2022-10-31T09:03:50;19.20;63.20
3770;DHT22;1900;48.890;9.190;2022-10-31T09:06:16;19.20;63.10
3770;DHT22;1900;48.890;9.190;2022-10-31T09:08:42;19.30;63.20
3770;DHT22;1900;48.890;9.190;2022-10-31T09:11:07;19.30;63.20
3770;DHT22;1900;48.890;9.190;2022-10-31T09:13:52;19.30;63.20
3770;DHT22;1900;48.890;9.190;2022-10-31T09:16:36;19.30;63.30
3770;DHT22;1900;48.890;9.190;2022-10-31T09:19:04;19.40;63.40
3770;DHT22;1900;48.890;9.190;2022-10-31T09:21:29;19.40;63.30
3770;DHT22;1900;48.890;9.190;2022-10-31T09:23:57;19.40;63.30
3770;DHT22;1900;48.890;9.190;2022-10-31T09:26:23;19.40;63.40
3770;DHT22;1900;48.890;9.190;2022-10-31T09:28:57;19.50;63.40
3770;DHT22;1900;48.890;9.190;2022-10-31T09:31:24;19.50;63.40
3770;DHT22;1900;48.890;9.190;2022-10-31T09:33:49;19.50;63.30
3770;DHT22;1900;48.890;9.190;2022-10-31T09:36:39;19.50;63.30
3770;DHT22;1900;48.890;9.190;2022-10-31T09:39:09;19.60;63.40
3770;DHT22;1900;48.890;9.190;2022-10-31T09:47:39;19.70;64.60
3770;DHT22;1900;48.890;9.190;2022-10-31T09:50:52;19.80;64.20
3770;DHT22;1900;48.890;9.190;2022-10-31T09:54:48;19.80;64.30
3770;DHT22;1900;48.890;9.190;2022-10-31T09:56:47;19.90;64.40
3770;DHT22;1900;48.890;9.190;2022-10-31T09:59:34;19.90;64.40
3770;DHT22;1900;48.890;9.190;2022-10-31T10:02:17;20.00;64.60
3770;DHT22;1900;48.890;9.190;2022-10-31T10:04:55;20.10;64.70
3770;DHT22;1900;48.890;9.190;2022-10-31T10:10:50;20.20;64.80
3770;DHT22;1900;48.890;9.190;2022-10-31T10:33:32;20.60;65.60
3770;DHT22;1900;48.890;9.190;2022-10-31T10:36:05;20.60;65.00
3770;DHT22;1900;48.890;9.190;2022-10-31T10:41:14;20.70;65.20
3770;DHT22;1900;48.890;9.190;2022-10-31T10:43:41;20.80;65.30
3770;DHT22;1900;48.890;9.190;2022-10-31T10:46:17;20.80;65.30
3770;DHT22;1900;48.890;9.190;2022-10-31T10:55:09;21.00;65.40
3770;DHT22;1900;48.890;9.190;2022-10-31T11:00:23;21.10;65.50
3770;DHT22;1900;48.890;9.190;2022-10-31T11:02:49;21.20;65.50
3770;DHT22;1900;48.890;9.190;2022-10-31T11:05:28;21.20;66.20
3770;DHT22;1900;48.890;9.190;2022-10-31T11:07:55;21.30;65.60
3770;DHT22;1900;48.890;9.190;2022-10-31T11:10:21;21.30;65.60
3770;DHT22;1900;48.890;9.190;2022-10-31T11:15:37;21.40;65.50
3770;DHT22;1900;48.890;9.190;2022-10-31T11:18:05;21.40;65.60
3770;DHT22;1900;48.890;9.190;2022-10-31T11:20:35;21.40;65.50
3770;DHT22;1900;48.890;9.190;2022-10-31T11:23:25;21.40;66.10
3770;DHT22;1900;48.890;9.190;2022-10-31T11:25:58;21.50;65.50
3770;DHT22;1900;48.890;9.190;2022-10-31T11:28:26;21.50;65.50
3770;DHT22;1900;48.890;9.190;2022-10-31T11:30:57;21.50;65.50
3770;DHT22;1900;48.890;9.190;2022-10-31T11:36:22;21.60;65.70
3770;DHT22;1900;48.890;9.190;2022-10-31T11:38:48;21.70;65.80
3770;DHT22;1900;48.890;9.190;2022-10-31T11:41:35;21.70;65.90
3770;DHT22;1900;48.890;9.190;2022-10-31T11:44:19;21.70;65.80
3770;DHT22;1900;48.890;9.190;2022-10-31T11:46:52;21.80;65.80
3770;DHT22;1900;48.890;9.190;2022-10-31T11:49:28;21.80;65.80
3770;DHT22;1900;48.890;9.190;2022-10-31T11:51:57;21.80;66.60
3770;DHT22;1900;48.890;9.190;2022-10-31T11:54:32;21.90;66.00
3770;DHT22;1900;48.890;9.190;2022-10-31T11:56:59;21.90;66.00
3770;DHT22;1900;48.890;9.190;2022-10-31T11:59:32;22.00;66.20
3770;DHT22;1900;48.890;9.190;2022-10-31T12:01:59;22.00;66.10
3770;DHT22;1900;48.890;9.190;2022-10-31T12:04:37;22.00;66.20
3770;DHT22;1900;48.890;9.190;2022-10-31T12:07:05;22.10;66.20
3770;DHT22;1900;48.890;9.190;2022-10-31T12:09:34;22.10;66.30
3770;DHT22;1900;48.890;9.190;2022-10-31T12:17:53;22.20;66.10
3770;DHT22;1900;48.890;9.190;2022-10-31T12:23:09;22.30;66.80
3770;DHT22;1900;48.890;9.190;2022-10-31T12:28:51;22.30;66.20
3770;DHT22;1900;48.890;9.190;2022-10-31T12:41:52;22.50;66.60
3770;DHT22;1900;48.890;9.190;2022-10-31T12:56:12;22.80;66.60
3770;DHT22;1900;48.890;9.190;2022-10-31T12:58:33;22.80;66.60
3770;DHT22;1900;48.890;9.190;2022-10-31T13:01:19;22.80;66.50
3770;DHT22;1900;48.890;9.190;2022-10-31T13:03:51;22.80;66.40
3770;DHT22;1900;48.890;9.190;2022-10-31T13:06:21;22.90;66.50
3770;DHT22;1900;48.890;9.190;2022-10-31T13:08:52;22.90;66.40
3770;DHT22;1900;48.890;9.190;2022-10-31T13:11:26;22.90;66.30
3770;DHT22;1900;48.890;9.190;2022-10-31T13:14:29;22.90;66.20
3770;DHT22;1900;48.890;9.190;2022-10-31T13:16:54;22.90;66.00
3770;DHT22;1900;48.890;9.190;2022-10-31T13:19:34;22.90;66.00
3770;DHT22;1900;48.890;9.190;2022-10-31T13:22:13;22.90;65.90
3770;DHT22;1900;48.890;9.190;2022-10-31T13:25:02;22.80;65.70
3770;DHT22;1900;48.890;9.190;2022-10-31T13:27:39;22.80;65.70
3770;DHT22;1900;48.890;9.190;2022-10-31T13:30:19;22.80;65.80
3770;DHT22;1900;48.890;9.190;2022-10-31T13:32:58;22.80;66.00
3770;DHT22;1900;48.890;9.190;2022-10-31T13:35:51;22.80;66.00
3770;DHT22;1900;48.890;9.190;2022-10-31T13:44:24;22.80;66.00
3770;DHT22;1900;48.890;9.190;2022-10-31T13:46:52;22.80;66.10
3770;DHT22;1900;48.890;9.190;2022-10-31T13:54:48;23.10;67.30
3770;DHT22;1900;48.890;9.190;2022-10-31T13:57:33;23.20;67.60
3770;DHT22;1900;48.890;9.190;2022-10-31T14:00:24;23.40;68.00
3770;DHT22;1900;48.890;9.190;2022-10-31T14:02:54;23.60;68.20
3770;DHT22;1900;48.890;9.190;2022-10-31T14:05:26;23.70;68.30
3770;DHT22;1900;48.890;9.190;2022-10-31T14:07:53;23.80;68.20
3770;DHT22;1900;48.890;9.190;2022-10-31T14:10:25;23.80;68.00
3770;DHT22;1900;48.890;9.190;2022-10-31T14:13:07;23.90;67.70
3770;DHT22;1900;48.890;9.190;2022-10-31T14:15:42;23.90;67.60
3770;DHT22;1900;48.890;9.190;2022-10-31T14:20:57;24.00;67.40
3770;DHT22;1900;48.890;9.190;2022-10-31T14:23:39;24.00;67.30
3770;DHT22;1900;48.890;9.190;2022-10-31T14:26:19;24.00;67.10
3770;DHT22;1900;48.890;9.190;2022-10-31T14:28:46;24.00;67.00
3770;DHT22;1900;48.890;9.190;2022-10-31T14:31:41;24.00;66.90
3770;DHT22;1900;48.890;9.190;2022-10-31T14:43:36;23.90;66.50
3770;DHT22;1900;48.890;9.190;2022-10-31T14:51:43;23.80;66.40
3770;DHT22;1900;48.890;9.190;2022-10-31T14:54:19;23.80;66.40
3770;DHT22;1900;48.890;9.190;2022-10-31T14:56:50;23.80;66.30
3770;DHT22;1900;48.890;9.190;2022-10-31T14:59:23;23.80;66.30
3770;DHT22;1900;48.890;9.190;2022-10-31T15:02:09;23.70;66.20
3770;DHT22;1900;48.890;9.190;2022-10-31T15:04:37;23.70;66.20
3770;DHT22;1900;48.890;9.190;2022-10-31T15:07:21;23.60;66.10
3770;DHT22;1900;48.890;9.190;2022-10-31T15:12:48;23.60;66.00
3770;DHT22;1900;48.890;9.190;2022-10-31T15:15:18;23.60;66.10
3770;DHT22;1900;48.890;9.190;2022-10-31T15:17:47;23.50;66.00
3770;DHT22;1900;48.890;9.190;2022-10-31T15:20:28;23.50;66.00
3770;DHT22;1900;48.890;9.190;2022-10-31T15:22:58;23.50;66.00
3770;DHT22;1900;48.890;9.190;2022-10-31T15:25:28;23.40;65.90
3770;DHT22;1900;48.890;9.190;2022-10-31T15:27:55;23.40;65.90
3770;DHT22;1900;48.890;9.190;2022-10-31T15:30:27;23.40;65.80
3770;DHT22;1900;48.890;9.190;2022-10-31T15:32:54;23.40;65.80
3770;DHT22;1900;48.890;9.190;2022-10-31T15:35:25;23.30;65.60
3770;DHT22;1900;48.890;9.190;2022-10-31T15:37:52;23.30;65.50
3770;DHT22;1900;48.890;9.190;2022-10-31T15:40:20;23.20;65.40
3770;DHT22;1900;48.890;9.190;2022-10-31T15:43:02;23.20;65.50
3770;DHT22;1900;48.890;9.190;2022-10-31T15:45:29;23.10;65.40
3770;DHT22;1900;48.890;9.190;2022-10-31T15:50:29;23.00;65.30
3770;DHT22;1900;48.890;9.190;2022-10-31T15:52:56;23.00;65.90
3770;DHT22;1900;48.890;9.190;2022-10-31T15:55:24;22.90;65.10
3770;DHT22;1900;48.890;9.190;2022-10-31T15:58:17;22.90;65.10
3770;DHT22;1900;48.890;9.190;2022-10-31T16:00:42;22.80;65.00
3770;DHT22;1900;48.890;9.190;2022-10-31T16:05:45;22.70;65.00
3770;DHT22;1900;48.890;9.190;2022-10-31T16:10:51;22.60;64.90
3770;DHT22;1900;48.890;9.190;2022-10-31T16:13:17;22.50;64.70
3770;DHT22;1900;48.890;9.190;2022-10-31T16:15:53;22.40;64.70
3770;DHT22;1900;48.890;9.190;2022-10-31T16:18:24;22.40;64.70
3770;DHT22;1900;48.890;9.190;2022-10-31T16:20:52;22.40;64.70
3770;DHT22;1900;48.890;9.190;2022-10-31T16:23:20;22.30;64.60
3770;DHT22;1900;48.890;9.190;2022-10-31T16:25:47;22.30;64.60
3770;DHT22;1900;48.890;9.190;2022-10-31T16:28:34;22.20;64.60
3770;DHT22;1900;48.890;9.190;2022-10-31T16:31:00;22.20;64.60
3770;DHT22;1900;48.890;9.190;2022-10-31T16:33:35;22.10;64.50
3770;DHT22;1900;48.890;9.190;2022-10-31T16:38:59;22.00;64.50
3770;DHT22;1900;48.890;9.190;2022-10-31T16:41:25;22.00;64.50
3770;DHT22;1900;48.890;9.190;2022-10-31T16:43:52;22.00;64.50
3770;DHT22;1900;48.890;9.190;2022-10-31T16:46:26;21.90;64.30
3770;DHT22;1900;48.890;9.190;2022-10-31T16:48:52;21.90;64.30
3770;DHT22;1900;48.890;9.190;2022-10-31T16:51:18;21.80;64.80
3770;DHT22;1900;48.890;9.190;2022-10-31T16:53:44;21.80;64.10
3770;DHT22;1900;48.890;9.190;2022-10-31T16:56:30;21.70;64.10
3770;DHT22;1900;48.890;9.190;2022-10-31T16:58:58;21.70;64.10
3770;DHT22;1900;48.890;9.190;2022-10-31T17:01:24;21.60;64.00
3770;DHT22;1900;48.890;9.190;2022-10-31T17:03:50;21.60;64.10
3770;DHT22;1900;48.890;9.190;2022-10-31T17:06:16;21.50;64.00
3770;DHT22;1900;48.890;9.190;2022-10-31T17:08:41;21.50;64.00
3770;DHT22;1900;48.890;9.190;2022-10-31T17:11:17;21.40;63.90
3770;DHT22;1900;48.890;9.190;2022-10-31T17:13:43;21.40;63.90
3770;DHT22;1900;48.890;9.190;2022-10-31T17:16:12;21.40;63.90
3770;DHT22;1900;48.890;9.190;2022-10-31T17:18:38;21.30;63.90
3770;DHT22;1900;48.890;9.190;2022-10-31T17:21:04;21.30;63.90
3770;DHT22;1900;48.890;9.190;2022-10-31T17:23:31;21.20;63.90
3770;DHT22;1900;48.890;9.190;2022-10-31T17:25:58;21.20;64.00
3770;DHT22;1900;48.890;9.190;2022-10-31T17:28:24;21.20;64.00
3770;DHT22;1900;48.890;9.190;2022-10-31T17:30:53;21.20;64.10
3770;DHT22;1900;48.890;9.190;2022-10-31T17:33:19;21.10;64.00
3770;DHT22;1900;48.890;9.190;2022-10-31T17:35:45;21.10;63.90
3770;DHT22;1900;48.890;9.190;2022-10-31T17:38:11;21.10;63.90
3770;DHT22;1900;48.890;9.190;2022-10-31T17:40:38;21.10;63.90
3770;DHT22;1900;48.890;9.190;2022-10-31T17:43:04;21.00;63.90
3770;DHT22;1900;48.890;9.190;2022-10-31T17:45:30;21.00;64.00
3770;DHT22;1900;48.890;9.190;2022-10-31T17:47:56;20.90;64.00
3770;DHT22;1900;48.890;9.190;2022-10-31T17:50:25;20.90;64.00
3770;DHT22;1900;48.890;9.190;2022-10-31T17:52:51;20.90;64.10
3770;DHT22;1900;48.890;9.190;2022-10-31T17:55:18;20.90;64.10
3770;DHT22;1900;48.890;9.190;2022-10-31T17:57:44;20.90;64.10
3770;DHT22;1900;48.890;9.190;2022-10-31T18:00:16;20.90;64.10
3770;DHT22;1900;48.890;9.190;2022-10-31T18:02:42;20.90;64.20
3770;DHT22;1900;48.890;9.190;2022-10-31T18:05:08;20.80;64.00
3770;DHT22;1900;48.890;9.190;2022-10-31T18:07:34;20.80;64.00
3770;DHT22;1900;48.890;9.190;2022-10-31T18:10:00;20.80;64.00
3770;DHT22;1900;48.890;9.190;2022-10-31T18:12:26;20.80;64.00
3770;DHT22;1900;48.890;9.190;2022-10-31T18:14:53;20.70;63.90
3770;DHT22;1900;48.890;9.190;2022-10-31T18:17:19;20.70;63.90
3770;DHT22;1900;48.890;9.190;2022-10-31T18:19:45;20.70;63.90
3770;DHT22;1900;48.890;9.190;2022-10-31T18:22:12;20.70;64.00
3770;DHT22;1900;48.890;9.190;2022-10-31T18:24:38;20.70;64.00
3770;DHT22;1900;48.890;9.190;2022-10-31T18:27:04;20.60;64.00
3770;DHT22;1900;48.890;9.190;2022-10-31T18:29:30;20.60;64.10
3770;DHT22;1900;48.890;9.190;2022-10-31T18:31:55;20.60;64.10
3770;DHT22;1900;48.890;9.190;2022-10-31T18:34:22;20.60;64.20
3770;DHT22;1900;48.890;9.190;2022-10-31T18:36:48;20.60;64.20
3770;DHT22;1900;48.890;9.190;2022-10-31T18:39:14;20.60;64.10
3770;DHT22;1900;48.890;9.190;2022-10-31T18:41:39;20.60;64.10
3770;DHT22;1900;48.890;9.190;2022-10-31T18:44:06;20.60;64.10
3770;DHT22;1900;48.890;9.190;2022-10-31T18:46:32;20.50;64.00
3770;DHT22;1900;48.890;9.190;2022-10-31T18:48:59;20.50;64.10
3770;DHT22;1900;48.890;9.190;2022-10-31T18:51:25;20.50;64.00
3770;DHT22;1900;48.890;9.190;2022-10-31T18:53:53;20.50;64.10
3770;DHT22;1900;48.890;9.190;2022-10-31T18:56:20;20.50;64.10
3770;DHT22;1900;48.890;9.190;2022-10-31T18:58:46;20.50;64.20
3770;DHT22;1900;48.890;9.190;2022-10-31T19:01:13;20.50;64.20
3770;DHT22;1900;48.890;9.190;2022-10-31T19:03:39;20.50;64.20
3770;DHT22;1900;48.890;9.190;2022-10-31T19:06:06;20.40;64.00
3770;DHT22;1900;48.890;9.190;2022-10-31T19:08:33;20.40;64.00
3770;DHT22;1900;48.890;9.190;2022-10-31T19:11:10;20.40;64.00
3770;DHT22;1900;48.890;9.190;2022-10-31T19:13:37;20.40;64.10
3770;DHT22;1900;48.890;9.190;2022-10-31T19:18:30;20.30;64.00